createdAt,value
2022-11-17T00:01:08.625Z,98650.38
2022-11-17T00:05:59.625Z,98634.84
2022-11-17T00:10:50.255Z,98624.44
2022-11-17T00:15:45.806Z,98593.59
2022-11-17T00:20:51.237Z,98589.34
2022-11-17T00:25:41.759Z,98590.97
2022-11-17T00:30:46.598Z,98591.69
2022-11-17T00:35:40.014Z,98576.16
2022-11-17T00:40:30.740Z,98576.09
2022-11-17T00:45:21.433Z,98573.34
2022-11-17T00:50:12.348Z,98590.56
2022-11-17T00:55:05.990Z,98588.72
2022-11-17T00:59:56.664Z,98551.56
2022-11-17T01:04:47.273Z,98555.84
2022-11-17T01:09:39.826Z,98551.41
2022-11-17T01:14:33.826Z,98550.44
2022-11-17T01:19:26.431Z,98539.03
2022-11-17T01:24:20.010Z,98542.50
2022-11-17T01:29:14.554Z,98550.25
2022-11-17T01:34:07.539Z,98556.19
2022-11-17T01:38:58.016Z,98533.75
2022-11-17T01:43:50.663Z,98532.84
2022-11-17T01:48:41.480Z,98531.84
2022-11-17T01:53:35.885Z,98517.16
2022-11-17T01:58:34.791Z,98504.28
2022-11-17T02:03:28.053Z,98499.03
2022-11-17T02:08:23.014Z,98493.88
2022-11-17T02:13:19.120Z,98483.56
2022-11-17T02:18:10.115Z,98474.91
2022-11-17T02:23:14.942Z,98458.66
2022-11-17T02:28:15.932Z,98465.50
2022-11-17T02:33:08.881Z,98468.88
2022-11-17T02:38:05.778Z,98451.63
2022-11-17T02:43:12.697Z,98443.06
2022-11-17T02:48:09.281Z,98436.34
2022-11-17T02:53:00.295Z,98429.66
2022-11-17T02:57:50.785Z,98434.72
2022-11-17T03:02:58.663Z,98425.50
2022-11-17T03:08:02.040Z,98429.75
2022-11-17T03:12:59.178Z,98410.72
2022-11-17T03:17:53.593Z,98384.97
2022-11-17T03:22:46.945Z,98382.34
2022-11-17T03:27:41.372Z,98375.47
2022-11-17T03:32:46.650Z,98365.94
2022-11-17T03:37:42.123Z,98363.03
2022-11-17T03:42:34.472Z,98357.72
2022-11-17T03:47:29.531Z,98355.00
2022-11-17T03:52:20.557Z,98336.81
2022-11-17T03:57:16.206Z,98330.78
2022-11-17T04:02:06.481Z,98335.88
2022-11-17T04:07:02.928Z,98329.06
2022-11-17T04:12:08.447Z,98332.53
2022-11-17T04:17:00.849Z,98331.00
2022-11-17T04:21:51.582Z,98326.69
2022-11-17T04:26:56.950Z,98312.22
2022-11-17T04:31:48.695Z,98301.94
2022-11-17T04:36:41.306Z,98301.09
2022-11-17T04:41:44.734Z,98294.19
2022-11-17T04:46:38.389Z,98295.91
2022-11-17T04:51:29.012Z,98312.22
2022-11-17T04:56:19.981Z,98301.72
2022-11-17T05:01:21.432Z,98299.88
2022-11-17T05:06:15.316Z,98315.38
2022-11-17T05:11:18.066Z,98318.75
2022-11-17T05:16:21.263Z,98309.25
2022-11-17T05:21:16.876Z,98313.47
2022-11-17T05:26:07.903Z,98313.41
2022-11-17T05:30:58.181Z,98315.09
2022-11-17T05:35:48.503Z,98307.34
2022-11-17T05:40:42.062Z,98307.31
2022-11-17T05:45:32.703Z,98309.81
2022-11-17T05:50:22.998Z,98304.56
2022-11-17T05:55:14.142Z,98307.94
2022-11-17T06:00:09.936Z,98310.28
2022-11-17T06:05:07.388Z,98318.88
2022-11-17T06:09:58.639Z,98325.78
2022-11-17T06:14:53.866Z,98320.06
2022-11-17T06:19:50.947Z,98327.84
2022-11-17T06:24:43.242Z,98330.47
2022-11-17T06:29:38.180Z,98323.81
2022-11-17T06:34:32.835Z,98336.03
2022-11-17T06:39:28.488Z,98325.06
2022-11-17T06:44:20.087Z,98329.59
2022-11-17T06:49:11.497Z,98348.59
2022-11-17T06:54:02.327Z,98346.19
2022-11-17T06:58:57.942Z,98353.19
2022-11-17T07:03:48.798Z,98368.78
2022-11-17T07:08:39.568Z,98373.28
2022-11-17T07:13:29.849Z,98376.84
2022-11-17T07:18:26.303Z,98373.56
2022-11-17T07:23:17.418Z,98385.72
2022-11-17T07:28:08.545Z,98379.88
2022-11-17T07:33:01.511Z,98390.34
2022-11-17T07:37:54.973Z,98398.06
2022-11-17T07:42:45.508Z,98396.34
2022-11-17T07:47:39.024Z,98394.59
2022-11-17T07:52:29.754Z,98403.97
2022-11-17T07:57:22.810Z,98418.56
2022-11-17T08:02:14.983Z,98427.16
2022-11-17T08:07:05.918Z,98425.50
2022-11-17T08:11:58.379Z,98436.63
2022-11-17T08:16:55.598Z,98443.53
2022-11-17T08:21:46.374Z,98448.66
2022-11-17T08:26:39.653Z,98452.06
2022-11-17T08:31:30.501Z,98453.72
2022-11-17T08:36:23.369Z,98460.56
2022-11-17T08:41:13.731Z,98468.25
2022-11-17T08:46:07.413Z,98477.75
2022-11-17T08:51:00.839Z,98476.94
2022-11-17T08:55:56.093Z,98481.31
2022-11-17T09:00:47.766Z,98484.94
2022-11-17T09:05:40.392Z,98488.47
2022-11-17T09:10:30.783Z,98503.16
2022-11-17T09:15:26.156Z,98504.91
2022-11-17T09:20:17.301Z,98522.06
2022-11-17T09:25:13.312Z,98525.38
2022-11-17T09:30:08.167Z,98528.78
2022-11-17T09:35:01.479Z,98534.84
2022-11-17T09:39:52.132Z,98540.94
2022-11-17T09:44:45.488Z,98544.41
2022-11-17T09:49:44.627Z,98549.59
2022-11-17T09:54:44.615Z,98558.22
2022-11-17T09:59:36.108Z,98568.53
2022-11-17T10:04:28.158Z,98577.22
2022-11-17T10:09:25.748Z,98567.75
2022-11-17T10:14:23.973Z,98578.06
2022-11-17T10:19:20.867Z,98574.53
2022-11-17T10:24:11.537Z,98570.16
2022-11-17T10:29:10.726Z,98580.38
2022-11-17T10:34:04.263Z,98597.47
2022-11-17T10:38:56.617Z,98597.34
2022-11-17T10:43:55.094Z,98607.53
2022-11-17T10:48:58.559Z,98610.97
2022-11-17T10:54:03.966Z,98621.31
2022-11-17T10:58:59.502Z,98621.22
2022-11-17T11:03:53.280Z,98615.97
2022-11-17T11:08:58.033Z,98615.91
2022-11-17T11:14:00.070Z,98619.25
2022-11-17T11:18:53.018Z,98624.25
2022-11-17T11:23:49.303Z,98630.97
2022-11-17T11:28:54.383Z,98630.81
2022-11-17T11:33:46.215Z,98640.22
2022-11-17T11:38:50.109Z,98643.66
2022-11-17T11:43:49.050Z,98644.50
2022-11-17T11:48:39.965Z,98649.66
2022-11-17T11:53:38.708Z,98653.88
2022-11-17T11:58:29.552Z,98661.53
2022-11-17T12:03:28.346Z,98652.09
2022-11-17T12:08:22.702Z,98661.59
2022-11-17T12:13:17.766Z,98670.28
2022-11-17T12:18:17.338Z,98672.81
2022-11-17T12:23:20.984Z,98668.56
2022-11-17T12:28:32.377Z,98681.38
2022-11-17T12:33:24.241Z,98676.78
2022-11-17T12:38:30.151Z,98681.00
2022-11-17T12:43:29.275Z,98685.31
2022-11-17T12:48:38.335Z,98692.16
2022-11-17T12:53:32.444Z,98693.06
2022-11-17T12:58:34.360Z,98699.06
2022-11-17T13:03:31.384Z,98716.25
2022-11-17T13:08:29.727Z,98721.22
2022-11-17T13:13:23.660Z,98736.47
2022-11-17T13:18:19.995Z,98742.13
2022-11-17T13:23:16.107Z,98753.06
2022-11-17T13:28:06.535Z,98771.94
2022-11-17T13:32:57.783Z,98759.00
2022-11-17T13:38:04.961Z,98780.47
2022-11-17T13:42:58.225Z,98772.63
2022-11-17T13:47:54.208Z,98778.53
2022-11-17T13:52:47.031Z,98787.84
2022-11-17T13:57:43.713Z,98782.63
2022-11-17T14:02:34.328Z,98791.16
2022-11-17T14:07:36.174Z,98795.38
2022-11-17T14:12:26.734Z,98804.78
2022-11-17T14:17:23.215Z,98825.53
2022-11-17T14:22:31.679Z,98825.41
2022-11-17T14:27:39.712Z,98832.28
2022-11-17T14:32:35.477Z,98823.63
2022-11-17T14:37:28.316Z,98823.50
2022-11-17T14:42:19.638Z,98841.53
2022-11-17T14:47:10.454Z,98845.03
2022-11-17T14:52:03.395Z,98852.84
2022-11-17T14:56:58.224Z,98852.00
2022-11-17T15:01:53.098Z,98848.56
2022-11-17T15:07:02.921Z,98848.69
2022-11-17T15:12:01.788Z,98861.69
2022-11-17T15:16:54.975Z,98860.88
2022-11-17T15:21:46.272Z,98854.09
2022-11-17T15:26:43.168Z,98867.91
2022-11-17T15:31:40.048Z,98865.38
2022-11-17T15:36:30.286Z,98887.00
2022-11-17T15:41:21.581Z,98896.50
2022-11-17T15:46:13.255Z,98895.50
2022-11-17T15:51:09.236Z,98901.56
2022-11-17T15:56:05.382Z,98900.03
2022-11-17T16:00:57.223Z,98910.50
2022-11-17T16:05:52.355Z,98913.97
2022-11-17T16:10:47.323Z,98914.03
2022-11-17T16:15:40.562Z,98924.44
2022-11-17T16:25:36.474Z,98942.63
2022-11-17T16:30:35.507Z,98939.19
2022-11-17T16:35:26.856Z,98955.59
2022-11-17T16:40:18.841Z,98947.88
2022-11-17T16:45:14.606Z,98951.34
2022-11-17T16:50:10.096Z,98962.59
2022-11-17T16:55:05.120Z,98960.88
2022-11-17T16:59:56.087Z,98971.28
2022-11-17T17:04:47.572Z,98974.75
2022-11-17T17:09:44.122Z,98983.41
2022-11-17T17:14:34.560Z,98987.72
2022-11-17T17:19:30.589Z,99000.75
2022-11-17T17:24:23.798Z,99005.91
2022-11-17T17:29:19.806Z,99011.97
2022-11-17T17:34:10.817Z,99015.50
2022-11-17T17:39:02.091Z,99035.38
2022-11-17T17:43:57.945Z,99032.84
2022-11-17T17:48:51.524Z,99038.88
2022-11-17T17:53:42.547Z,99038.09
2022-11-17T17:58:40.932Z,99051.06
2022-11-17T18:03:33.898Z,99063.25
2022-11-17T18:08:27.704Z,99068.53
2022-11-17T18:13:22.667Z,99078.91
2022-11-17T18:18:19.127Z,99073.81
2022-11-17T18:23:09.992Z,99079.97
2022-11-17T18:28:04.341Z,99086.06
2022-11-17T18:32:57.870Z,99093.03
2022-11-17T18:37:52.788Z,99094.00
2022-11-17T18:42:45.512Z,99092.31
2022-11-17T18:47:39.721Z,99100.09
2022-11-17T18:52:31.573Z,99107.97
2022-11-17T18:57:28.330Z,99105.47
2022-11-17T19:02:19.094Z,99113.34
2022-11-17T19:07:13.397Z,99124.50
2022-11-17T19:12:10.643Z,99127.09
2022-11-17T19:17:01.791Z,99130.59
2022-11-17T19:21:52.581Z,99140.13
2022-11-17T19:26:49.770Z,99144.44
2022-11-17T19:31:45.495Z,99145.38
2022-11-17T19:36:40.480Z,99149.69
2022-11-17T19:41:35.926Z,99159.31
2022-11-17T19:46:30.948Z,99173.13
2022-11-17T19:51:23.335Z,99179.22
2022-11-17T19:56:15.126Z,99180.97
2022-11-17T20:01:14.551Z,99192.19
2022-11-17T20:06:14.447Z,99198.22
2022-11-17T20:11:11.874Z,99205.19
2022-11-17T20:16:08.834Z,99216.38
2022-11-17T20:21:04.815Z,99212.09
2022-11-17T20:25:57.927Z,99220.72
2022-11-17T20:30:48.447Z,99237.13
2022-11-17T20:35:41.709Z,99250.06
2022-11-17T20:40:32.664Z,99256.97
2022-11-17T20:45:32.016Z,99255.34
2022-11-17T20:50:21.601Z,99271.75
2022-11-17T20:55:14.046Z,99278.66
2022-11-17T21:00:05.125Z,99281.31
2022-11-17T21:04:58.249Z,99290.81
2022-11-17T21:09:49.308Z,99303.78
2022-11-17T21:14:40.464Z,99303.84
2022-11-17T21:19:32.413Z,99311.63
2022-11-17T21:24:28.011Z,99320.28
2022-11-17T21:29:23.140Z,99320.34
2022-11-17T21:34:17.740Z,99329.84
2022-11-17T21:39:18.731Z,99333.34
2022-11-17T21:44:14.954Z,99332.53
2022-11-17T21:49:05.830Z,99337.72
2022-11-17T21:53:57.835Z,99335.19
2022-11-17T21:58:48.314Z,99340.38
2022-11-17T22:03:42.335Z,99347.22
2022-11-17T22:08:33.722Z,99349.81
2022-11-17T22:13:24.015Z,99356.75
2022-11-17T22:18:14.258Z,99361.03
2022-11-17T22:23:07.624Z,99378.25
2022-11-17T22:27:58.249Z,99384.25
2022-11-17T22:32:49.495Z,99382.63
2022-11-17T22:37:39.711Z,99392.91
2022-11-17T22:42:33.058Z,99400.66
2022-11-17T22:47:23.874Z,99405.78
2022-11-17T22:52:16.240Z,99405.81
2022-11-17T22:57:07.013Z,99425.56
2022-11-17T23:02:01.451Z,99424.69
2022-11-17T23:06:54.000Z,99436.72
2022-11-17T23:11:45.090Z,99446.19
2022-11-17T23:16:39.474Z,99448.78
2022-11-17T23:21:33.861Z,99447.94
2022-11-17T23:26:24.568Z,99457.38
2022-11-17T23:31:15.799Z,99460.84
2022-11-17T23:36:08.284Z,99473.72
2022-11-17T23:41:07.983Z,99488.31
2022-11-17T23:45:58.515Z,99490.91
2022-11-17T23:50:48.863Z,99485.78
2022-11-17T23:55:39.112Z,99484.94
